createdAt,value
2022-08-27T00:02:18.006Z,49.05
2022-08-27T00:04:46.995Z,46.72
2022-08-27T00:07:16.558Z,54.67
2022-08-27T00:09:45.215Z,47.67
2022-08-27T00:12:13.601Z,49.22
2022-08-27T00:14:41.741Z,48.47
2022-08-27T00:17:11.313Z,41.70
2022-08-27T00:19:39.921Z,43.20
2022-08-27T00:22:09.915Z,43.00
2022-08-27T00:24:38.554Z,44.38
2022-08-27T00:27:16.658Z,40.35
2022-08-27T00:29:44.697Z,41.13
2022-08-27T00:32:14.182Z,43.38
2022-08-27T00:34:42.271Z,36.10
2022-08-27T00:37:10.370Z,42.10
2022-08-27T00:39:38.436Z,36.17
2022-08-27T00:42:07.283Z,36.42
2022-08-27T00:44:35.401Z,37.70
2022-08-27T00:47:07.919Z,43.15
2022-08-27T00:49:41.482Z,39.35
2022-08-27T00:52:17.041Z,42.70
2022-08-27T00:54:46.174Z,42.60
2022-08-27T00:57:16.378Z,40.90
2022-08-27T00:59:45.184Z,37.10
2022-08-27T01:02:20.125Z,38.17
2022-08-27T01:04:54.137Z,38.20
2022-08-27T01:07:28.666Z,40.85
2022-08-27T01:10:00.334Z,37.65
2022-08-27T01:12:30.997Z,39.55
2022-08-27T01:14:59.279Z,39.75
2022-08-27T01:17:27.595Z,39.10
2022-08-27T01:20:00.431Z,39.03
2022-08-27T01:25:08.947Z,40.63
2022-08-27T01:27:37.923Z,41.17
2022-08-27T01:30:08.585Z,43.05
2022-08-27T01:32:38.395Z,43.30
2022-08-27T01:35:10.388Z,37.75
2022-08-27T01:37:39.796Z,36.67
2022-08-27T01:40:11.325Z,41.08
2022-08-27T01:42:47.368Z,33.78
2022-08-27T01:45:18.391Z,37.25
2022-08-27T01:47:46.889Z,34.88
2022-08-27T01:50:18.992Z,34.78
2022-08-27T01:52:47.487Z,39.05
2022-08-27T01:55:19.992Z,39.22
2022-08-27T01:57:48.609Z,36.75
2022-08-27T02:00:20.011Z,43.63
2022-08-27T02:02:49.199Z,36.58
2022-08-27T02:05:18.397Z,35.90
2022-08-27T02:07:46.853Z,36.42
2022-08-27T02:10:19.610Z,42.65
2022-08-27T02:15:16.196Z,55.72
2022-08-27T02:17:44.552Z,42.30
2022-08-27T02:20:13.744Z,45.67
2022-08-27T02:22:42.370Z,52.65
2022-08-27T02:25:12.290Z,53.85
2022-08-27T02:27:42.342Z,52.85
2022-08-27T02:30:13.186Z,59.88
2022-08-27T02:32:41.223Z,57.78
2022-08-27T02:35:10.166Z,63.28
2022-08-27T02:37:38.522Z,59.33
2022-08-27T02:40:08.640Z,73.18
2022-08-27T02:42:36.741Z,66.72
2022-08-27T02:45:09.254Z,68.65
2022-08-27T02:47:37.533Z,67.78
2022-08-27T02:50:06.686Z,63.28
2022-08-27T02:52:35.993Z,63.03
2022-08-27T02:55:04.452Z,66.18
2022-08-27T02:57:36.396Z,71.10
2022-08-27T03:00:06.804Z,55.70
2022-08-27T03:02:37.322Z,57.75
2022-08-27T03:05:06.039Z,63.85
2022-08-27T03:07:37.327Z,60.83
2022-08-27T03:10:07.194Z,72.85
2022-08-27T03:12:36.402Z,73.35
2022-08-27T03:15:04.871Z,70.63
2022-08-27T03:17:50.338Z,65.07
2022-08-27T03:20:19.833Z,68.85
2022-08-27T03:22:47.962Z,71.32
2022-08-27T03:25:16.510Z,74.65
2022-08-27T03:27:44.681Z,73.82
2022-08-27T03:30:15.957Z,69.50
2022-08-27T03:32:44.474Z,72.32
2022-08-27T03:35:13.024Z,72.97
2022-08-27T03:37:42.529Z,72.70
2022-08-27T03:40:11.916Z,74.93
2022-08-27T03:42:42.649Z,75.63
2022-08-27T03:45:12.119Z,76.00
2022-08-27T03:47:40.839Z,79.90
2022-08-27T03:50:11.015Z,73.97
2022-08-27T03:52:39.593Z,76.03
2022-08-27T03:55:10.478Z,78.75
2022-08-27T03:57:40.151Z,79.13
2022-08-27T04:00:14.214Z,79.30
2022-08-27T04:02:44.585Z,96.30
2022-08-27T04:05:14.219Z,92.13
2022-08-27T04:07:44.145Z,86.32
2022-08-27T04:10:14.507Z,84.13
2022-08-27T04:12:43.226Z,89.20
2022-08-27T04:15:12.862Z,90.88
2022-08-27T04:17:41.492Z,95.57
2022-08-27T04:20:33.955Z,83.80
2022-08-27T04:22:59.131Z,88.57
2022-08-27T04:25:28.582Z,85.47
2022-08-27T04:27:56.646Z,78.70
2022-08-27T04:30:24.856Z,80.25
2022-08-27T04:32:52.976Z,79.85
2022-08-27T04:35:21.076Z,83.28
2022-08-27T04:37:49.060Z,96.97
2022-08-27T04:40:17.731Z,81.50
2022-08-27T04:42:47.213Z,89.93
2022-08-27T04:45:15.259Z,87.93
2022-08-27T04:47:43.351Z,98.68
2022-08-27T04:50:11.582Z,91.82
2022-08-27T04:52:41.621Z,97.90
2022-08-27T04:55:11.182Z,97.95
2022-08-27T04:57:39.269Z,89.95
2022-08-27T05:00:11.102Z,88.60
2022-08-27T05:02:39.304Z,88.60
2022-08-27T05:05:13.091Z,87.47
2022-08-27T05:07:43.959Z,92.50
2022-08-27T05:10:12.197Z,79.10
2022-08-27T05:12:40.205Z,79.28
2022-08-27T05:15:10.543Z,83.68
2022-08-27T05:17:38.836Z,82.78
2022-08-27T05:20:08.170Z,81.28
2022-08-27T05:22:36.233Z,82.38
2022-08-27T05:25:06.285Z,79.22
2022-08-27T05:27:34.361Z,84.38
2022-08-27T05:30:02.723Z,77.72
2022-08-27T05:32:32.290Z,79.30
2022-08-27T05:35:00.589Z,78.10
2022-08-27T05:37:28.631Z,79.90
2022-08-27T05:39:59.883Z,80.18
2022-08-27T05:42:30.270Z,84.80
2022-08-27T05:44:58.792Z,74.22
2022-08-27T05:47:27.138Z,81.03
2022-08-27T05:49:56.818Z,76.07
2022-08-27T05:52:24.864Z,69.93
2022-08-27T05:54:55.420Z,66.13
2022-08-27T05:57:23.434Z,66.35
2022-08-27T06:00:09.529Z,61.15
2022-08-27T06:02:44.262Z,54.80
2022-08-27T06:05:13.915Z,54.97
2022-08-27T06:07:42.143Z,53.67
2022-08-27T06:10:11.312Z,54.85
2022-08-27T06:12:39.523Z,44.67
2022-08-27T06:15:08.513Z,44.40
2022-08-27T06:17:36.589Z,38.05
2022-08-27T06:20:05.470Z,42.58
2022-08-27T06:22:38.056Z,36.67
2022-08-27T06:25:07.326Z,38.92
2022-08-27T06:27:35.432Z,37.97
2022-08-27T06:30:04.660Z,37.47
2022-08-27T06:32:32.784Z,34.53
2022-08-27T06:35:00.867Z,38.85
2022-08-27T06:37:30.287Z,32.83
2022-08-27T06:39:59.714Z,31.80
2022-08-27T06:42:27.832Z,37.08
2022-08-27T06:44:55.897Z,40.53
2022-08-27T06:47:23.924Z,36.58
2022-08-27T06:49:52.347Z,39.80
2022-08-27T06:52:20.371Z,32.28
2022-08-27T06:54:48.391Z,30.38
2022-08-27T06:57:20.110Z,30.08
2022-08-27T06:59:48.387Z,30.13
2022-08-27T07:02:16.538Z,28.17
2022-08-27T07:04:44.659Z,33.00
2022-08-27T07:07:15.353Z,33.55
2022-08-27T07:10:00.800Z,32.28
2022-08-27T07:12:30.620Z,27.05
2022-08-27T07:14:58.883Z,28.55
2022-08-27T07:17:27.837Z,28.75
2022-08-27T07:19:56.613Z,26.58
2022-08-27T07:22:24.626Z,27.40
2022-08-27T07:24:55.190Z,20.95
2022-08-27T07:27:23.438Z,21.58
2022-08-27T07:29:53.219Z,18.63
2022-08-27T07:32:21.578Z,19.77
2022-08-27T07:34:58.937Z,18.05
2022-08-27T07:37:32.043Z,21.27
2022-08-27T07:40:05.370Z,20.42
2022-08-27T07:42:50.791Z,23.98
2022-08-27T07:45:20.843Z,22.10
2022-08-27T07:47:50.249Z,20.30
2022-08-27T07:50:18.762Z,21.77
2022-08-27T07:52:46.849Z,21.65
2022-08-27T07:55:15.601Z,22.40
2022-08-27T07:57:44.841Z,23.60
2022-08-27T08:00:13.771Z,21.92
2022-08-27T08:02:44.958Z,22.30
2022-08-27T08:05:15.218Z,21.55
2022-08-27T08:07:44.032Z,25.00
2022-08-27T08:10:12.809Z,20.92
2022-08-27T08:12:41.819Z,21.67
2022-08-27T08:15:12.715Z,22.60
2022-08-27T08:17:42.875Z,20.35
2022-08-27T08:20:27.609Z,21.48
2022-08-27T08:23:00.758Z,19.08
2022-08-27T08:25:28.892Z,17.40
2022-08-27T08:28:02.750Z,17.58
2022-08-27T08:30:31.407Z,16.80
2022-08-27T08:33:05.493Z,16.17
2022-08-27T08:35:35.069Z,15.27
2022-08-27T08:38:09.147Z,17.73
2022-08-27T08:40:40.490Z,17.58
2022-08-27T08:43:14.595Z,16.55
2022-08-27T08:45:43.882Z,18.90
2022-08-27T08:48:19.563Z,19.15
2022-08-27T08:50:56.168Z,18.23
2022-08-27T08:53:37.408Z,18.02
2022-08-27T08:56:10.703Z,17.15
2022-08-27T08:58:45.010Z,24.50
2022-08-27T09:01:16.511Z,18.83
2022-08-27T09:03:55.535Z,19.08
2022-08-27T09:06:35.989Z,20.45
2022-08-27T09:09:14.425Z,18.77
2022-08-27T09:11:50.746Z,19.15
2022-08-27T09:14:27.572Z,20.60
2022-08-27T09:16:57.542Z,17.02
2022-08-27T09:19:28.747Z,18.20
2022-08-27T09:22:03.301Z,22.45
2022-08-27T09:24:40.710Z,16.13
2022-08-27T09:27:12.484Z,18.65
2022-08-27T09:29:49.006Z,16.23
2022-08-27T09:32:17.368Z,18.23
2022-08-27T09:34:47.279Z,18.70
2022-08-27T09:37:20.846Z,13.07
2022-08-27T09:39:54.832Z,14.40
2022-08-27T09:42:37.479Z,14.03
2022-08-27T09:45:11.968Z,14.43
2022-08-27T09:47:45.373Z,18.15
2022-08-27T09:50:18.499Z,17.00
2022-08-27T09:52:54.004Z,18.15
2022-08-27T09:55:40.652Z,11.98
2022-08-27T09:58:18.192Z,15.95
2022-08-27T10:00:49.357Z,16.20
2022-08-27T10:03:22.671Z,12.35
2022-08-27T10:05:54.849Z,13.88
2022-08-27T10:08:28.752Z,12.68
2022-08-27T10:10:59.360Z,11.63
2022-08-27T10:13:33.797Z,14.25
2022-08-27T10:16:40.030Z,14.85
2022-08-27T10:19:25.460Z,16.27
2022-08-27T10:22:05.009Z,15.57
2022-08-27T10:24:39.728Z,17.17
2022-08-27T10:27:17.831Z,12.55
2022-08-27T10:29:52.742Z,13.73
2022-08-27T10:32:38.424Z,13.50
2022-08-27T10:35:14.179Z,13.88
2022-08-27T10:38:01.769Z,11.13
2022-08-27T10:40:35.674Z,12.38
2022-08-27T10:43:23.557Z,12.48
2022-08-27T10:46:05.816Z,14.10
2022-08-27T10:48:40.179Z,13.63
2022-08-27T10:51:16.755Z,13.55
2022-08-27T10:53:55.753Z,11.23
2022-08-27T10:56:32.752Z,17.75
2022-08-27T10:59:13.683Z,16.20
2022-08-27T11:01:48.043Z,17.83
2022-08-27T11:04:21.586Z,14.77
2022-08-27T11:06:56.926Z,14.32
2022-08-27T11:09:35.823Z,15.27
2022-08-27T11:12:14.349Z,12.57
2022-08-27T11:14:49.045Z,13.80
2022-08-27T11:17:26.534Z,11.45
2022-08-27T11:20:07.463Z,21.98
2022-08-27T11:22:40.030Z,11.98
2022-08-27T11:25:23.120Z,14.38
2022-08-27T11:27:54.066Z,13.88
2022-08-27T11:30:28.281Z,13.50
2022-08-27T11:33:05.889Z,10.65
2022-08-27T11:38:33.949Z,11.73
2022-08-27T11:41:44.689Z,12.18
2022-08-27T11:44:16.101Z,11.73
2022-08-27T11:46:47.087Z,10.40
2022-08-27T11:49:27.143Z,14.02
2022-08-27T11:52:01.995Z,10.15
2022-08-27T11:54:32.688Z,12.30
2022-08-27T11:57:02.583Z,12.77
2022-08-27T11:59:33.655Z,9.02
2022-08-27T12:02:17.661Z,9.07
2022-08-27T12:04:45.904Z,11.15
2022-08-27T12:07:34.428Z,13.00
2022-08-27T12:10:21.518Z,8.90
2022-08-27T12:13:13.310Z,8.38
2022-08-27T12:15:59.935Z,7.63
2022-08-27T12:18:47.440Z,7.93
2022-08-27T12:21:24.648Z,8.75
2022-08-27T12:24:12.942Z,9.25
2022-08-27T12:26:56.169Z,8.07
2022-08-27T12:29:39.320Z,8.73
2022-08-27T12:32:26.353Z,8.43
2022-08-27T12:35:03.071Z,9.05
2022-08-27T12:37:36.164Z,10.55
2022-08-27T12:40:12.875Z,7.80
2022-08-27T12:42:41.137Z,12.57
2022-08-27T12:45:19.930Z,9.68
2022-08-27T12:47:50.833Z,8.57
2022-08-27T12:50:26.323Z,11.23
2022-08-27T12:53:27.171Z,10.27
2022-08-27T12:56:02.403Z,11.23
2022-08-27T12:58:42.363Z,11.77
2022-08-27T13:01:32.052Z,10.25
2022-08-27T13:04:01.326Z,15.60
2022-08-27T13:06:33.107Z,9.98
2022-08-27T13:09:03.399Z,13.83
2022-08-27T13:11:35.874Z,9.80
2022-08-27T13:14:10.230Z,10.18
2022-08-27T13:16:53.851Z,14.18
2022-08-27T13:19:26.238Z,11.23
2022-08-27T13:21:55.333Z,13.90
2022-08-27T13:24:31.935Z,10.80
2022-08-27T13:27:00.718Z,11.82
2022-08-27T13:29:29.713Z,10.05
2022-08-27T13:32:01.569Z,10.32
2022-08-27T13:34:41.364Z,11.15
2022-08-27T13:37:24.246Z,10.48
2022-08-27T13:42:24.501Z,9.45
2022-08-27T13:44:56.506Z,9.70
2022-08-27T13:47:28.365Z,10.32
2022-08-27T13:50:04.664Z,11.20
2022-08-27T13:52:36.798Z,12.75
2022-08-27T13:55:08.143Z,7.47
2022-08-27T13:57:43.585Z,9.95
2022-08-27T14:00:17.367Z,7.88
2022-08-27T14:02:56.000Z,9.45
2022-08-27T14:05:30.149Z,10.27
2022-08-27T14:08:01.071Z,15.88
2022-08-27T14:10:34.734Z,7.60
2022-08-27T14:13:06.456Z,9.82
2022-08-27T14:15:38.589Z,8.07
2022-08-27T14:18:32.176Z,9.30
2022-08-27T14:21:09.836Z,9.68
2022-08-27T14:23:37.963Z,7.70
2022-08-27T14:26:06.431Z,15.80
2022-08-27T14:28:34.620Z,12.95
2022-08-27T14:31:02.989Z,9.85
2022-08-27T14:33:32.454Z,7.82
2022-08-27T14:36:01.055Z,9.65
2022-08-27T14:38:32.182Z,8.45
2022-08-27T14:41:00.429Z,8.85
2022-08-27T14:43:28.906Z,7.60
2022-08-27T14:45:58.156Z,10.80
2022-08-27T14:48:30.620Z,7.38
2022-08-27T14:51:03.127Z,8.27
2022-08-27T14:56:01.799Z,12.35
2022-08-27T14:58:30.407Z,10.00
2022-08-27T15:00:59.709Z,7.95
2022-08-27T15:03:28.388Z,8.82
2022-08-27T15:05:57.546Z,8.23
2022-08-27T15:08:32.051Z,12.18
2022-08-27T15:11:01.171Z,7.72
2022-08-27T15:13:30.920Z,10.10
2022-08-27T15:15:59.481Z,11.77
2022-08-27T15:18:27.798Z,10.93
2022-08-27T15:20:56.139Z,9.95
2022-08-27T15:23:24.349Z,10.38
2022-08-27T15:25:54.283Z,14.35
2022-08-27T15:28:22.540Z,12.38
2022-08-27T15:30:51.052Z,16.60
2022-08-27T15:33:20.957Z,14.60
2022-08-27T15:35:49.140Z,13.55
2022-08-27T15:38:17.321Z,14.05
2022-08-27T15:40:45.791Z,15.20
2022-08-27T15:43:16.644Z,14.27
2022-08-27T15:45:45.023Z,15.55
2022-08-27T15:48:13.780Z,10.82
2022-08-27T15:50:43.357Z,13.85
2022-08-27T15:53:11.868Z,13.88
2022-08-27T15:55:43.177Z,13.13
2022-08-27T15:58:12.976Z,13.15
2022-08-27T16:00:44.305Z,15.35
2022-08-27T16:03:14.837Z,16.98
2022-08-27T16:05:45.321Z,14.55
2022-08-27T16:08:14.387Z,9.52
2022-08-27T16:10:42.553Z,15.00
2022-08-27T16:13:11.317Z,11.25
2022-08-27T16:15:41.795Z,14.15
2022-08-27T16:18:12.373Z,14.13
2022-08-27T16:20:41.356Z,11.57
2022-08-27T16:23:09.754Z,13.75
2022-08-27T16:25:37.926Z,12.38
2022-08-27T16:28:06.645Z,10.48
2022-08-27T16:30:35.067Z,10.60
2022-08-27T16:33:03.309Z,9.25
2022-08-27T16:35:33.173Z,10.02
2022-08-27T16:38:04.285Z,11.23
2022-08-27T16:40:42.417Z,11.90
2022-08-27T16:43:16.000Z,9.77
2022-08-27T16:45:44.348Z,12.77
2022-08-27T16:48:29.574Z,11.55
2022-08-27T16:51:03.589Z,10.25
2022-08-27T16:53:34.946Z,7.00
2022-08-27T16:56:04.572Z,12.38
2022-08-27T16:58:33.404Z,10.25
2022-08-27T17:01:05.215Z,9.55
2022-08-27T17:04:07.286Z,9.60
2022-08-27T17:06:36.348Z,10.18
2022-08-27T17:09:08.140Z,13.77
2022-08-27T17:11:40.467Z,8.32
2022-08-27T17:14:12.475Z,11.90
2022-08-27T17:16:45.624Z,11.10
2022-08-27T17:19:17.887Z,8.15
2022-08-27T17:21:48.535Z,13.35
2022-08-27T17:24:16.770Z,9.75
2022-08-27T17:26:45.417Z,11.10
2022-08-27T17:29:13.783Z,9.40
2022-08-27T17:31:44.276Z,8.55
2022-08-27T17:34:16.900Z,11.32
2022-08-27T17:36:46.217Z,13.63
2022-08-27T17:39:16.164Z,10.95
2022-08-27T17:41:46.907Z,10.90
2022-08-27T17:44:21.894Z,9.35
2022-08-27T17:46:50.798Z,12.18
2022-08-27T17:49:19.984Z,10.40
2022-08-27T17:51:50.218Z,10.73
2022-08-27T17:54:30.259Z,11.48
2022-08-27T17:56:59.127Z,10.73
2022-08-27T17:59:27.444Z,10.30
2022-08-27T18:01:56.686Z,13.23
2022-08-27T18:04:27.999Z,9.77
2022-08-27T18:06:56.404Z,9.95
2022-08-27T18:09:25.874Z,8.30
2022-08-27T18:11:54.167Z,7.97
2022-08-27T18:14:24.825Z,10.48
2022-08-27T18:16:53.072Z,7.93
2022-08-27T18:19:21.441Z,9.48
2022-08-27T18:21:49.602Z,6.68
2022-08-27T18:24:18.345Z,11.30
2022-08-27T18:26:50.251Z,9.73
2022-08-27T18:29:19.035Z,8.10
2022-08-27T18:31:47.104Z,11.60
2022-08-27T18:34:20.051Z,8.95
2022-08-27T18:36:49.094Z,10.73
2022-08-27T18:39:17.253Z,8.60
2022-08-27T18:41:45.609Z,8.63
2022-08-27T18:44:17.666Z,7.20
2022-08-27T18:46:46.521Z,9.48
2022-08-27T18:49:14.736Z,9.20
2022-08-27T18:51:47.143Z,9.75
2022-08-27T18:54:19.022Z,9.85
2022-08-27T18:56:48.042Z,9.57
2022-08-27T18:59:17.691Z,8.10
2022-08-27T19:01:46.356Z,7.22
2022-08-27T19:04:16.490Z,6.57
2022-08-27T19:06:45.164Z,8.48
2022-08-27T19:09:15.427Z,5.95
2022-08-27T19:11:43.916Z,7.28
2022-08-27T19:14:12.072Z,7.50
2022-08-27T19:16:44.815Z,5.45
2022-08-27T19:21:42.263Z,5.78
2022-08-27T19:24:11.747Z,6.72
2022-08-27T19:26:40.684Z,6.82
2022-08-27T19:29:09.480Z,5.35
2022-08-27T19:31:39.066Z,7.63
2022-08-27T19:34:09.863Z,7.20
2022-08-27T19:36:42.274Z,7.82
2022-08-27T19:39:13.685Z,7.18
2022-08-27T19:41:42.227Z,6.13
2022-08-27T19:44:10.357Z,7.85
2022-08-27T19:46:38.633Z,6.03
2022-08-27T19:49:08.105Z,7.82
2022-08-27T19:51:36.410Z,5.40
2022-08-27T19:54:04.870Z,6.53
2022-08-27T19:56:34.580Z,6.53
2022-08-27T19:59:15.828Z,6.30
2022-08-27T20:01:49.601Z,7.13
2022-08-27T20:04:19.938Z,8.48
2022-08-27T20:06:48.928Z,11.52
2022-08-27T20:09:18.439Z,9.60
2022-08-27T20:11:47.686Z,7.13
2022-08-27T20:14:18.812Z,12.85
2022-08-27T20:16:48.549Z,10.65
2022-08-27T20:19:19.968Z,9.20
2022-08-27T20:21:48.153Z,8.85
2022-08-27T20:24:16.463Z,12.18
2022-08-27T20:26:44.601Z,10.10
2022-08-27T20:29:15.015Z,9.32
2022-08-27T20:31:56.875Z,11.80
2022-08-27T20:34:29.805Z,11.75
2022-08-27T20:36:58.810Z,16.10
2022-08-27T20:39:27.060Z,10.38
2022-08-27T20:41:55.371Z,11.30
2022-08-27T20:44:24.199Z,13.35
2022-08-27T20:46:56.179Z,8.35
2022-08-27T20:49:24.354Z,8.90
2022-08-27T20:52:02.810Z,10.13
2022-08-27T20:54:33.965Z,16.67
2022-08-27T20:57:02.648Z,16.00
2022-08-27T20:59:48.320Z,12.77
2022-08-27T21:02:17.641Z,10.68
2022-08-27T21:04:47.339Z,13.43
2022-08-27T21:07:17.841Z,10.73
2022-08-27T21:09:55.908Z,14.00
2022-08-27T21:12:25.253Z,16.85
2022-08-27T21:14:56.202Z,11.38
2022-08-27T21:17:27.150Z,13.25
2022-08-27T21:19:55.757Z,11.80
2022-08-27T21:22:25.933Z,14.20
2022-08-27T21:24:55.284Z,12.07
2022-08-27T21:27:23.619Z,9.93
2022-08-27T21:29:52.733Z,17.00
2022-08-27T21:32:23.337Z,18.98
2022-08-27T21:34:52.254Z,14.88
2022-08-27T21:37:21.106Z,14.75
2022-08-27T21:39:50.558Z,13.60
2022-08-27T21:42:21.137Z,13.65
2022-08-27T21:44:49.426Z,14.80
2022-08-27T21:47:17.875Z,13.75
2022-08-27T21:49:46.434Z,13.65
2022-08-27T21:52:14.764Z,16.27
2022-08-27T21:54:43.585Z,14.15
2022-08-27T21:57:15.632Z,15.52
2022-08-27T21:59:46.828Z,18.83
2022-08-27T22:02:39.226Z,18.48
2022-08-27T22:05:05.306Z,26.95
2022-08-27T22:07:33.646Z,16.27
2022-08-27T22:10:01.757Z,17.02
2022-08-27T22:12:31.444Z,18.17
2022-08-27T22:14:59.889Z,22.83
2022-08-27T22:17:28.240Z,20.85
2022-08-27T22:19:56.539Z,26.35
2022-08-27T22:22:24.864Z,25.73
2022-08-27T22:24:59.371Z,29.25
2022-08-27T22:27:27.953Z,29.38
2022-08-27T22:29:59.183Z,41.70
2022-08-27T22:32:29.885Z,37.13
2022-08-27T22:34:58.352Z,55.47
2022-08-27T22:37:30.063Z,42.17
2022-08-27T22:39:58.333Z,45.78
2022-08-27T22:42:29.225Z,45.58
2022-08-27T22:44:58.761Z,42.95
2022-08-27T22:47:30.171Z,53.45
2022-08-27T22:50:01.956Z,46.93
2022-08-27T22:52:30.127Z,52.53
2022-08-27T22:54:58.339Z,54.05
2022-08-27T22:57:28.865Z,52.67
2022-08-27T23:00:01.002Z,51.67
2022-08-27T23:02:29.111Z,55.42
2022-08-27T23:04:57.358Z,60.75
2022-08-27T23:07:25.848Z,61.08
2022-08-27T23:09:54.178Z,59.65
2022-08-27T23:12:22.864Z,58.95
2022-08-27T23:14:51.221Z,60.22
2022-08-27T23:17:23.969Z,59.42
2022-08-27T23:19:53.645Z,62.22
2022-08-27T23:22:21.942Z,65.95
2022-08-27T23:25:07.571Z,61.65
2022-08-27T23:27:37.985Z,75.75
2022-08-27T23:30:08.090Z,63.38
2022-08-27T23:32:39.602Z,55.83
2022-08-27T23:35:15.212Z,71.38
2022-08-27T23:37:43.940Z,69.70
2022-08-27T23:40:13.733Z,69.97
2022-08-27T23:42:45.493Z,58.45
2022-08-27T23:45:19.584Z,64.70
2022-08-27T23:47:49.484Z,60.90
2022-08-27T23:50:18.313Z,67.63
2022-08-27T23:52:46.901Z,71.13
2022-08-27T23:55:15.326Z,72.05
2022-08-27T23:57:43.460Z,62.67
